createdAt,value
2023-04-11T00:00:47.371Z,59.14
2023-04-11T00:01:47.451Z,59.14
2023-04-11T00:02:47.478Z,58.53
2023-04-11T00:03:47.452Z,58.84
2023-04-11T00:04:47.368Z,58.53
2023-04-11T00:05:47.305Z,58.73
2023-04-11T00:06:47.304Z,59.04
2023-04-11T00:07:47.260Z,58.53
2023-04-11T00:08:47.273Z,58.73
2023-04-11T00:09:47.244Z,58.53
2023-04-11T00:10:47.236Z,58.43
2023-04-11T00:11:47.230Z,58.63
2023-04-11T00:12:47.203Z,58.73
2023-04-11T00:13:47.177Z,58.84
2023-04-11T00:14:47.190Z,58.94
2023-04-11T00:15:47.190Z,58.53
2023-04-11T00:16:47.214Z,58.22
2023-04-11T00:17:47.152Z,58.12
2023-04-11T00:18:47.145Z,58.33
2023-04-11T00:19:47.113Z,58.63
2023-04-11T00:20:47.120Z,58.12
2023-04-11T00:21:47.116Z,58.33
2023-04-11T00:22:47.095Z,58.12
2023-04-11T00:23:47.069Z,58.22
2023-04-11T00:24:47.053Z,58.22
2023-04-11T00:25:47.043Z,58.33
2023-04-11T00:26:47.045Z,58.33
2023-04-11T00:27:47.014Z,58.53
2023-04-11T00:28:46.998Z,58.53
2023-04-11T00:29:47.003Z,58.33
2023-04-11T00:30:46.967Z,58.22
2023-04-11T00:31:47.005Z,58.12
2023-04-11T00:32:46.956Z,58.53
2023-04-11T00:33:46.932Z,58.02
2023-04-11T00:34:46.925Z,58.33
2023-04-11T00:35:46.998Z,58.63
2023-04-11T00:36:47.058Z,58.84
2023-04-11T00:37:46.890Z,58.53
2023-04-11T00:38:46.851Z,58.53
2023-04-11T00:39:46.877Z,58.33
2023-04-11T00:40:46.849Z,58.53
2023-04-11T00:41:46.828Z,59.04
2023-04-11T00:42:46.808Z,58.84
2023-04-11T00:43:46.793Z,59.04
2023-04-11T00:44:46.791Z,59.04
2023-04-11T00:45:46.786Z,59.14
2023-04-11T00:46:46.783Z,58.94
2023-04-11T00:47:46.772Z,58.84
2023-04-11T00:48:46.726Z,59.45
2023-04-11T00:49:46.710Z,59.45
2023-04-11T00:50:46.697Z,59.14
2023-04-11T00:51:46.690Z,59.25
2023-04-11T00:52:46.665Z,59.04
2023-04-11T00:53:46.657Z,58.94
2023-04-11T00:54:46.668Z,59.14
2023-04-11T00:55:46.655Z,59.27
2023-04-11T00:56:46.617Z,59.48
2023-04-11T00:57:46.636Z,59.27
2023-04-11T00:58:46.587Z,59.27
2023-04-11T00:59:46.573Z,59.38
2023-04-11T01:00:46.701Z,59.99
2023-04-11T01:01:46.617Z,59.78
2023-04-11T01:02:46.656Z,60.10
2023-04-11T01:03:46.671Z,59.68
2023-04-11T01:04:46.505Z,60.19
2023-04-11T01:05:46.507Z,60.30
2023-04-11T01:06:46.495Z,59.58
2023-04-11T01:07:46.494Z,59.58
2023-04-11T01:08:46.456Z,59.07
2023-04-11T01:09:46.456Z,59.17
2023-04-11T01:10:46.470Z,59.38
2023-04-11T01:11:46.426Z,59.38
2023-04-11T01:12:46.481Z,59.38
2023-04-11T01:13:46.397Z,59.17
2023-04-11T01:14:46.385Z,58.97
2023-04-11T01:15:46.390Z,58.76
2023-04-11T01:16:46.428Z,58.76
2023-04-11T01:17:46.391Z,58.76
2023-04-11T01:18:46.351Z,58.66
2023-04-11T01:19:46.321Z,58.76
2023-04-11T01:20:46.315Z,58.76
2023-04-11T01:21:46.309Z,58.76
2023-04-11T01:22:46.298Z,59.07
2023-04-11T01:23:46.269Z,59.07
2023-04-11T01:24:46.262Z,58.86
2023-04-11T01:25:46.265Z,59.17
2023-04-11T01:26:46.226Z,59.38
2023-04-11T01:27:46.233Z,59.48
2023-04-11T01:28:46.188Z,59.38
2023-04-11T01:29:46.181Z,58.66
2023-04-11T01:30:46.205Z,58.97
2023-04-11T01:31:46.208Z,58.56
2023-04-11T01:32:46.168Z,58.53
2023-04-11T01:33:46.147Z,58.73
2023-04-11T01:34:46.145Z,58.63
2023-04-11T01:35:46.134Z,58.53
2023-04-11T01:36:46.099Z,58.43
2023-04-11T01:37:46.091Z,58.22
2023-04-11T01:38:46.086Z,57.81
2023-04-11T01:39:46.111Z,58.33
2023-04-11T01:40:46.122Z,58.33
2023-04-11T01:41:46.048Z,58.22
2023-04-11T01:42:46.042Z,58.43
2023-04-11T01:43:46.033Z,57.51
2023-04-11T01:44:45.981Z,58.33
2023-04-11T01:45:45.998Z,57.99
2023-04-11T01:46:45.975Z,58.20
2023-04-11T01:47:46.647Z,58.61
2023-04-11T01:48:46.111Z,59.42
2023-04-11T01:49:45.927Z,59.53
2023-04-11T01:50:45.904Z,60.14
2023-04-11T01:51:45.927Z,61.36
2023-04-11T01:52:45.885Z,61.16
2023-04-11T01:53:45.932Z,62.29
2023-04-11T01:54:45.872Z,62.80
2023-04-11T01:55:45.861Z,63.00
2023-04-11T01:56:45.838Z,63.82
2023-04-11T01:57:45.820Z,64.26
2023-04-11T01:58:45.807Z,64.67
2023-04-11T01:59:45.815Z,67.02
2023-04-11T02:00:45.778Z,67.02
2023-04-11T02:01:45.836Z,67.43
2023-04-11T02:02:45.851Z,69.27
2023-04-11T02:03:45.838Z,68.76
2023-04-11T02:04:45.773Z,69.31
2023-04-11T02:05:45.725Z,70.74
2023-04-11T02:06:45.707Z,72.07
2023-04-11T02:07:45.759Z,72.58
2023-04-11T02:08:45.665Z,72.82
2023-04-11T02:09:45.664Z,73.44
2023-04-11T02:10:45.656Z,73.74
2023-04-11T02:11:45.634Z,74.15
2023-04-11T02:12:45.625Z,74.90
2023-04-11T02:13:45.601Z,75.73
2023-04-11T02:14:45.635Z,75.62
2023-04-11T02:15:45.657Z,75.82
2023-04-11T02:16:45.569Z,76.54
2023-04-11T02:17:45.796Z,76.78
2023-04-11T02:18:45.571Z,77.29
2023-04-11T02:19:45.619Z,78.12
2023-04-11T02:20:45.511Z,78.53
2023-04-11T02:21:45.528Z,78.12
2023-04-11T02:22:45.491Z,77.40
2023-04-11T02:23:45.503Z,77.71
2023-04-11T02:24:45.452Z,76.07
2023-04-11T02:25:45.468Z,77.40
2023-04-11T02:26:45.431Z,76.99
2023-04-11T02:27:45.434Z,76.92
2023-04-11T02:28:45.407Z,78.36
2023-04-11T02:29:45.408Z,78.36
2023-04-11T02:30:45.492Z,78.56
2023-04-11T02:31:45.432Z,79.18
2023-04-11T02:32:45.401Z,79.49
2023-04-11T02:33:45.336Z,80.10
2023-04-11T02:34:45.319Z,80.10
2023-04-11T02:35:45.361Z,79.80
2023-04-11T02:36:45.328Z,80.00
2023-04-11T02:37:45.295Z,79.80
2023-04-11T02:38:45.265Z,79.18
2023-04-11T02:39:45.268Z,79.49
2023-04-11T02:40:45.266Z,79.73
2023-04-11T02:41:45.241Z,80.14
2023-04-11T02:42:45.226Z,80.65
2023-04-11T02:43:45.220Z,80.86
2023-04-11T02:44:45.194Z,80.76
2023-04-11T02:45:45.218Z,80.96
2023-04-11T02:46:45.216Z,80.55
2023-04-11T02:47:45.232Z,79.83
2023-04-11T02:48:45.165Z,78.09
2023-04-11T02:49:45.149Z,78.29
2023-04-11T02:50:45.190Z,78.50
2023-04-11T02:51:45.109Z,79.42
2023-04-11T02:52:47.683Z,80.14
2023-04-11T02:53:45.084Z,79.93
2023-04-11T02:54:45.068Z,80.55
2023-04-11T02:55:45.058Z,81.06
2023-04-11T02:56:45.049Z,81.06
2023-04-11T02:57:45.021Z,80.86
2023-04-11T02:58:45.020Z,80.96
2023-04-11T02:59:45.083Z,81.57
2023-04-11T03:00:44.990Z,81.06
2023-04-11T03:01:45.062Z,81.16
2023-04-11T03:02:45.016Z,82.23
2023-04-11T03:03:45.164Z,83.05
2023-04-11T03:04:45.001Z,83.67
2023-04-11T03:05:44.958Z,83.26
2023-04-11T03:06:44.898Z,83.05
2023-04-11T03:07:44.900Z,83.67
2023-04-11T03:08:44.877Z,84.08
2023-04-11T03:09:44.859Z,83.87
2023-04-11T03:10:44.868Z,84.49
2023-04-11T03:11:47.350Z,85.00
2023-04-11T03:12:44.835Z,84.90
2023-04-11T03:13:44.826Z,84.80
2023-04-11T03:14:44.823Z,84.90
2023-04-11T03:15:44.829Z,85.14
2023-04-11T03:16:44.797Z,85.04
2023-04-11T03:17:44.815Z,85.25
2023-04-11T03:18:45.241Z,84.74
2023-04-11T03:19:44.733Z,84.94
2023-04-11T03:20:44.735Z,85.25
2023-04-11T03:21:44.739Z,85.66
2023-04-11T03:22:44.718Z,85.76
2023-04-11T03:23:44.713Z,85.76
2023-04-11T03:24:44.679Z,86.07
2023-04-11T03:25:44.743Z,85.76
2023-04-11T03:26:44.642Z,85.46
2023-04-11T03:27:44.635Z,85.46
2023-04-11T03:28:44.636Z,85.25
2023-04-11T03:29:44.646Z,86.17
2023-04-11T03:30:44.602Z,85.86
2023-04-11T03:31:44.626Z,85.86
2023-04-11T03:32:44.606Z,86.07
2023-04-11T03:33:44.558Z,86.17
2023-04-11T03:34:44.957Z,86.07
2023-04-11T03:35:44.542Z,86.27
2023-04-11T03:36:44.540Z,86.48
2023-04-11T03:37:44.497Z,86.38
2023-04-11T03:38:44.526Z,85.86
2023-04-11T03:39:44.504Z,85.97
2023-04-11T03:40:44.486Z,85.46
2023-04-11T03:41:44.448Z,85.55
2023-04-11T03:42:45.115Z,85.76
2023-04-11T03:43:44.434Z,85.97
2023-04-11T03:44:44.420Z,85.86
2023-04-11T03:45:44.387Z,85.35
2023-04-11T03:46:44.423Z,85.35
2023-04-11T03:47:44.383Z,85.14
2023-04-11T03:48:44.363Z,84.53
2023-04-11T03:49:44.398Z,84.12
2023-04-11T03:50:44.332Z,83.09
2023-04-11T03:51:44.325Z,82.78
2023-04-11T03:52:44.316Z,84.01
2023-04-11T03:53:44.289Z,84.22
2023-04-11T03:54:46.381Z,84.63
2023-04-11T03:55:44.270Z,84.01
2023-04-11T03:56:44.275Z,84.42
2023-04-11T03:57:44.239Z,84.42
2023-04-11T03:58:44.229Z,84.53
2023-04-11T03:59:44.232Z,84.22
2023-04-11T04:00:44.224Z,83.61
2023-04-11T04:01:44.251Z,83.61
2023-04-11T04:02:44.334Z,83.61
2023-04-11T04:03:44.275Z,83.70
2023-04-11T04:04:44.273Z,83.50
2023-04-11T04:05:44.131Z,82.99
2023-04-11T04:06:44.117Z,82.17
2023-04-11T04:07:44.098Z,81.96
2023-04-11T04:08:44.098Z,82.27
2023-04-11T04:09:44.082Z,82.27
2023-04-11T04:10:44.065Z,82.57
2023-04-11T04:11:44.061Z,83.46
2023-04-11T04:12:44.074Z,83.05
2023-04-11T04:13:44.028Z,82.64
2023-04-11T04:14:44.018Z,81.82
2023-04-11T04:15:44.026Z,81.71
2023-04-11T04:16:44.064Z,82.03
2023-04-11T04:17:44.031Z,81.30
2023-04-11T04:18:43.980Z,80.58
2023-04-11T04:19:44.076Z,80.18
2023-04-11T04:20:44.049Z,79.46
2023-04-11T04:21:43.911Z,78.12
2023-04-11T04:22:43.912Z,79.46
2023-04-11T04:23:43.907Z,79.87
2023-04-11T04:24:43.907Z,79.77
2023-04-11T04:25:43.876Z,80.28
2023-04-11T04:26:43.897Z,81.00
2023-04-11T04:27:43.836Z,80.18
2023-04-11T04:28:43.829Z,80.38
2023-04-11T04:29:43.828Z,81.20
2023-04-11T04:30:43.815Z,81.16
2023-04-11T04:31:43.801Z,81.16
2023-04-11T04:32:43.893Z,80.86
2023-04-11T04:33:43.788Z,80.65
2023-04-11T04:34:43.764Z,80.04
2023-04-11T04:35:43.774Z,80.24
2023-04-11T04:36:43.748Z,80.76
2023-04-11T04:37:43.698Z,80.24
2023-04-11T04:38:43.690Z,79.93
2023-04-11T04:39:43.711Z,80.86
2023-04-11T04:40:43.674Z,80.35
2023-04-11T04:41:43.686Z,80.35
2023-04-11T04:42:43.634Z,81.06
2023-04-11T04:43:43.628Z,81.48
2023-04-11T04:44:43.806Z,80.65
2023-04-11T04:45:43.616Z,81.06
2023-04-11T04:46:43.624Z,80.55
2023-04-11T04:47:43.605Z,81.16
2023-04-11T04:48:43.569Z,81.48
2023-04-11T04:49:43.557Z,80.65
2023-04-11T04:50:43.547Z,80.96
2023-04-11T04:51:43.666Z,81.48
2023-04-11T04:52:43.515Z,82.67
2023-04-11T04:53:43.529Z,81.99
2023-04-11T04:54:43.492Z,81.34
2023-04-11T04:55:43.480Z,81.06
2023-04-11T04:56:43.470Z,80.51
2023-04-11T04:57:43.454Z,81.74
2023-04-11T04:58:43.435Z,81.23
2023-04-11T04:59:43.424Z,81.43
2023-04-11T05:00:43.420Z,80.92
2023-04-11T05:01:43.483Z,81.34
2023-04-11T05:02:43.477Z,81.74
2023-04-11T05:03:43.425Z,81.74
2023-04-11T05:04:43.417Z,81.23
2023-04-11T05:05:43.347Z,81.64
2023-04-11T05:06:43.330Z,81.85
2023-04-11T05:07:43.306Z,81.64
2023-04-11T05:08:43.296Z,81.74
2023-04-11T05:09:43.295Z,81.95
2023-04-11T05:10:43.271Z,81.64
2023-04-11T05:11:43.271Z,81.74
2023-04-11T05:12:43.272Z,81.85
2023-04-11T05:13:43.221Z,82.53
2023-04-11T05:14:43.241Z,82.01
2023-04-11T05:15:43.203Z,81.50
2023-04-11T05:16:43.262Z,82.01
2023-04-11T05:17:43.229Z,82.32
2023-04-11T05:18:43.218Z,82.22
2023-04-11T05:19:43.159Z,82.83
2023-04-11T05:20:43.147Z,82.93
2023-04-11T05:21:43.122Z,81.71
2023-04-11T05:22:43.123Z,82.32
2023-04-11T05:23:43.209Z,82.83
2023-04-11T05:24:43.095Z,82.93
2023-04-11T05:25:43.071Z,81.81
2023-04-11T05:26:43.080Z,83.34
2023-04-11T05:27:43.070Z,82.93
2023-04-11T05:28:43.030Z,83.45
2023-04-11T05:29:43.028Z,83.76
2023-04-11T05:30:43.049Z,83.14
2023-04-11T05:31:42.986Z,83.45
2023-04-11T05:32:43.025Z,83.65
2023-04-11T05:33:42.983Z,84.47
2023-04-11T05:34:42.974Z,84.99
2023-04-11T05:35:42.986Z,85.50
2023-04-11T05:36:42.926Z,85.50
2023-04-11T05:37:42.918Z,85.50
2023-04-11T05:38:42.961Z,84.78
2023-04-11T05:39:42.885Z,84.47
2023-04-11T05:40:42.872Z,84.88
2023-04-11T05:41:42.841Z,85.80
2023-04-11T05:42:42.847Z,85.09
2023-04-11T05:43:43.098Z,84.06
2023-04-11T05:44:42.832Z,84.06
2023-04-11T05:45:42.816Z,84.27
2023-04-11T05:46:42.804Z,83.55
2023-04-11T05:47:42.826Z,83.96
2023-04-11T05:48:42.770Z,84.78
2023-04-11T05:49:42.762Z,84.58
2023-04-11T05:50:42.781Z,84.68
2023-04-11T05:51:42.751Z,84.17
2023-04-11T05:52:42.727Z,84.06
2023-04-11T05:53:42.715Z,83.96
2023-04-11T05:54:42.708Z,84.58
2023-04-11T05:55:42.680Z,85.19
2023-04-11T05:56:42.679Z,85.19
2023-04-11T05:57:42.646Z,84.88
2023-04-11T05:58:42.646Z,84.99
2023-04-11T05:59:42.630Z,84.68
2023-04-11T06:00:42.614Z,84.27
2023-04-11T06:01:42.623Z,84.17
2023-04-11T06:02:42.944Z,83.96
2023-04-11T06:03:42.709Z,83.45
2023-04-11T06:04:42.637Z,84.17
2023-04-11T06:05:42.585Z,84.78
2023-04-11T06:06:42.531Z,83.76
2023-04-11T06:07:42.502Z,83.86
2023-04-11T06:08:42.489Z,83.76
2023-04-11T06:09:42.560Z,84.47
2023-04-11T06:10:42.472Z,85.09
2023-04-11T06:11:42.452Z,85.30
2023-04-11T06:12:42.444Z,85.19
2023-04-11T06:13:42.429Z,85.09
2023-04-11T06:14:42.444Z,84.99
2023-04-11T06:15:42.452Z,84.37
2023-04-11T06:16:42.391Z,83.96
2023-04-11T06:17:42.447Z,84.06
2023-04-11T06:18:42.368Z,84.37
2023-04-11T06:19:42.369Z,84.58
2023-04-11T06:20:42.337Z,84.06
2023-04-11T06:21:42.383Z,84.06
2023-04-11T06:22:42.311Z,84.58
2023-04-11T06:23:42.322Z,84.68
2023-04-11T06:24:42.294Z,84.88
2023-04-11T06:25:42.262Z,84.58
2023-04-11T06:26:42.278Z,84.23
2023-04-11T06:27:42.252Z,83.34
2023-04-11T06:28:42.260Z,83.61
2023-04-11T06:29:42.256Z,83.31
2023-04-11T06:30:42.228Z,83.51
2023-04-11T06:31:42.258Z,83.41
2023-04-11T06:32:42.265Z,83.51
2023-04-11T06:33:42.170Z,83.72
2023-04-11T06:34:42.161Z,83.72
2023-04-11T06:35:42.151Z,83.72
2023-04-11T06:36:42.119Z,82.69
2023-04-11T06:37:42.323Z,83.72
2023-04-11T06:38:42.112Z,83.92
2023-04-11T06:39:42.102Z,83.61
2023-04-11T06:40:42.126Z,84.03
2023-04-11T06:41:42.088Z,84.23
2023-04-11T06:42:42.061Z,84.23
2023-04-11T06:43:42.070Z,84.64
2023-04-11T06:44:42.072Z,84.12
2023-04-11T06:45:42.008Z,84.23
2023-04-11T06:46:42.045Z,84.12
2023-04-11T06:47:42.018Z,83.41
2023-04-11T06:48:42.000Z,83.72
2023-04-11T06:49:41.967Z,83.82
2023-04-11T06:50:41.961Z,83.82
2023-04-11T06:51:41.950Z,83.72
2023-04-11T06:52:41.920Z,83.82
2023-04-11T06:53:42.101Z,83.41
2023-04-11T06:54:41.897Z,82.79
2023-04-11T06:55:41.878Z,83.20
2023-04-11T06:56:41.901Z,83.37
2023-04-11T06:57:41.861Z,83.47
2023-04-11T06:58:41.870Z,83.17
2023-04-11T06:59:41.823Z,82.96
2023-04-11T07:00:41.811Z,82.96
2023-04-11T07:01:41.898Z,82.65
2023-04-11T07:02:42.005Z,83.06
2023-04-11T07:03:42.007Z,83.37
2023-04-11T07:04:41.959Z,83.78
2023-04-11T07:05:41.796Z,84.29
2023-04-11T07:06:41.787Z,83.88
2023-04-11T07:07:41.745Z,83.37
2023-04-11T07:08:41.714Z,83.27
2023-04-11T07:09:41.723Z,83.33
2023-04-11T07:10:41.685Z,83.23
2023-04-11T07:11:41.725Z,82.21
2023-04-11T07:12:41.677Z,82.00
2023-04-11T07:13:41.645Z,82.21
2023-04-11T07:14:41.648Z,82.41
2023-04-11T07:15:41.662Z,81.79
2023-04-11T07:16:42.357Z,81.70
2023-04-11T07:17:41.611Z,82.21
2023-04-11T07:18:41.597Z,82.31
2023-04-11T07:19:41.602Z,82.10
2023-04-11T07:20:41.568Z,81.96
2023-04-11T07:21:41.531Z,81.76
2023-04-11T07:22:41.542Z,80.94
2023-04-11T07:23:41.532Z,80.94
2023-04-11T07:24:41.505Z,80.43
2023-04-11T07:25:41.497Z,80.43
2023-04-11T07:26:41.486Z,80.33
2023-04-11T07:27:41.456Z,79.91
2023-04-11T07:28:41.489Z,80.33
2023-04-11T07:29:41.451Z,80.02
2023-04-11T07:30:42.142Z,80.74
2023-04-11T07:31:41.445Z,80.74
2023-04-11T07:32:41.466Z,79.82
2023-04-11T07:33:41.399Z,79.71
2023-04-11T07:34:41.376Z,79.82
2023-04-11T07:35:41.412Z,80.43
2023-04-11T07:36:41.351Z,80.12
2023-04-11T07:37:41.362Z,80.33
2023-04-11T07:38:41.361Z,79.61
2023-04-11T07:39:41.314Z,79.30
2023-04-11T07:40:41.303Z,79.41
2023-04-11T07:41:41.319Z,79.71
2023-04-11T07:42:41.311Z,79.82
2023-04-11T07:43:41.261Z,80.33
2023-04-11T07:44:41.223Z,80.33
2023-04-11T07:45:41.273Z,80.33
2023-04-11T07:46:41.231Z,79.50
2023-04-11T07:47:41.287Z,79.61
2023-04-11T07:48:41.243Z,79.37
2023-04-11T07:49:41.227Z,79.47
2023-04-11T07:50:41.147Z,79.37
2023-04-11T07:51:41.173Z,79.68
2023-04-11T07:52:41.127Z,79.47
2023-04-11T07:53:41.147Z,79.88
2023-04-11T07:54:41.102Z,79.27
2023-04-11T07:55:41.088Z,79.64
2023-04-11T07:56:41.099Z,79.64
2023-04-11T07:57:41.095Z,78.82
2023-04-11T07:58:41.072Z,78.52
2023-04-11T07:59:41.098Z,78.11
2023-04-11T08:00:41.021Z,78.38
2023-04-11T08:01:41.027Z,77.25
2023-04-11T08:02:41.180Z,77.15
2023-04-11T08:03:41.163Z,76.94
2023-04-11T08:04:41.117Z,76.50
2023-04-11T08:05:40.974Z,75.58
2023-04-11T08:06:40.937Z,75.68
2023-04-11T08:07:40.942Z,76.19
2023-04-11T08:08:40.937Z,75.65
2023-04-11T08:09:40.910Z,75.34
2023-04-11T08:10:40.893Z,74.79
2023-04-11T08:11:40.898Z,74.29
2023-04-11T08:12:40.881Z,74.25
2023-04-11T08:13:40.904Z,74.25
2023-04-11T08:14:40.837Z,74.35
2023-04-11T08:15:40.831Z,73.19
2023-04-11T08:16:40.863Z,72.48
2023-04-11T08:17:40.966Z,72.17
2023-04-11T08:18:40.786Z,71.15
2023-04-11T08:19:40.792Z,71.36
2023-04-11T08:20:40.852Z,71.26
2023-04-11T08:21:40.757Z,71.56
2023-04-11T08:22:40.762Z,72.17
2023-04-11T08:23:40.734Z,71.26
2023-04-11T08:24:40.707Z,71.67
2023-04-11T08:25:40.738Z,71.36
2023-04-11T08:26:40.690Z,71.87
2023-04-11T08:27:40.776Z,71.26
2023-04-11T08:28:42.606Z,71.46
2023-04-11T08:29:40.663Z,70.04
2023-04-11T08:30:40.706Z,69.63
2023-04-11T08:31:40.629Z,68.78
2023-04-11T08:32:40.662Z,67.93
2023-04-11T08:33:40.585Z,67.08
2023-04-11T08:34:40.600Z,66.41
2023-04-11T08:35:40.576Z,66.15
2023-04-11T08:36:40.547Z,65.68
2023-04-11T08:37:40.559Z,65.04
2023-04-11T08:38:40.527Z,62.85
2023-04-11T08:39:40.531Z,62.29
2023-04-11T08:40:40.502Z,61.82
2023-04-11T08:41:40.654Z,60.98
2023-04-11T08:42:40.485Z,60.32
2023-04-11T08:43:40.468Z,59.69
2023-04-11T08:44:40.450Z,57.91
2023-04-11T08:45:40.486Z,57.81
2023-04-11T08:46:40.423Z,58.39
2023-04-11T08:47:41.895Z,55.84
2023-04-11T08:48:40.394Z,54.53
2023-04-11T08:49:40.380Z,55.24
2023-04-11T08:50:40.375Z,55.11
2023-04-11T08:51:40.358Z,56.72
2023-04-11T08:52:40.364Z,55.82
2023-04-11T08:53:40.327Z,55.74
2023-04-11T08:54:40.311Z,54.13
2023-04-11T08:55:40.312Z,54.21
2023-04-11T08:56:40.280Z,53.20
2023-04-11T08:57:40.290Z,53.70
2023-04-11T08:58:41.877Z,54.58
2023-04-11T08:59:40.248Z,53.27
2023-04-11T09:00:40.224Z,53.65
2023-04-11T09:01:40.684Z,53.72
2023-04-11T09:02:40.293Z,53.60
2023-04-11T09:03:40.237Z,52.57
2023-04-11T09:04:40.206Z,53.14
2023-04-11T09:05:40.172Z,51.61
2023-04-11T09:06:40.829Z,50.61
2023-04-11T09:07:40.165Z,49.93
2023-04-11T09:08:40.457Z,50.35
2023-04-11T09:09:40.120Z,50.68
2023-04-11T09:10:40.103Z,50.51
2023-04-11T09:11:40.098Z,51.43
2023-04-11T09:12:40.083Z,51.06
2023-04-11T09:13:40.067Z,51.06
2023-04-11T09:14:40.085Z,50.88
2023-04-11T09:15:40.069Z,51.40
2023-04-11T09:16:40.009Z,52.74
2023-04-11T09:17:40.076Z,53.14
2023-04-11T09:18:40.017Z,52.04
2023-04-11T09:19:39.995Z,51.61
2023-04-11T09:20:39.975Z,51.81
2023-04-11T09:21:39.977Z,51.20
2023-04-11T09:22:41.415Z,51.81
2023-04-11T09:23:39.944Z,51.81
2023-04-11T09:24:39.915Z,52.01
2023-04-11T09:25:39.912Z,52.51
2023-04-11T09:26:39.892Z,52.51
2023-04-11T09:27:39.898Z,52.11
2023-04-11T09:28:39.876Z,51.51
2023-04-11T09:29:39.856Z,50.50
2023-04-11T09:30:39.845Z,50.70
2023-04-11T09:31:39.961Z,52.11
2023-04-11T09:32:39.831Z,51.59
2023-04-11T09:33:39.793Z,51.59
2023-04-11T09:34:41.978Z,51.68
2023-04-11T09:35:39.815Z,51.97
2023-04-11T09:36:39.775Z,51.16
2023-04-11T09:37:39.746Z,50.96
2023-04-11T09:38:39.724Z,51.14
2023-04-11T09:39:39.737Z,51.01
2023-04-11T09:40:39.709Z,51.01
2023-04-11T09:41:39.723Z,50.38
2023-04-11T09:42:39.677Z,50.38
2023-04-11T09:43:39.679Z,48.97
2023-04-11T09:44:39.663Z,48.07
2023-04-11T09:45:51.712Z,48.39
2023-04-11T09:46:40.734Z,48.29
2023-04-11T09:47:39.646Z,49.12
2023-04-11T09:48:46.102Z,48.84
2023-04-11T09:49:40.603Z,48.96
2023-04-11T09:50:39.585Z,49.87
2023-04-11T09:51:39.582Z,50.98
2023-04-11T09:52:39.545Z,50.96
2023-04-11T09:53:39.535Z,51.54
2023-04-11T09:54:39.532Z,50.10
2023-04-11T09:55:39.803Z,49.10
2023-04-11T09:56:39.506Z,49.60
2023-04-11T09:57:39.492Z,49.80
2023-04-11T09:58:39.481Z,49.19
2023-04-11T09:59:39.462Z,49.70
2023-04-11T10:00:39.440Z,49.50
2023-04-11T10:01:39.539Z,49.27
2023-04-11T10:02:39.550Z,48.67
2023-04-11T10:03:39.424Z,47.26
2023-04-11T10:04:39.410Z,46.76
2023-04-11T10:05:39.383Z,47.08
2023-04-11T10:06:39.417Z,47.28
2023-04-11T10:07:39.364Z,47.06
2023-04-11T10:08:39.340Z,47.46
2023-04-11T10:09:39.346Z,47.97
2023-04-11T10:10:39.325Z,48.14
2023-04-11T10:11:39.302Z,47.66
2023-04-11T10:12:39.287Z,46.56
2023-04-11T10:13:39.266Z,44.87
2023-04-11T10:14:39.460Z,44.11
2023-04-11T10:15:39.381Z,44.85
2023-04-11T10:16:39.296Z,45.50
2023-04-11T10:17:39.236Z,47.67
2023-04-11T10:18:39.205Z,50.34
2023-04-11T10:19:39.203Z,51.40
2023-04-11T10:20:39.191Z,54.08
2023-04-11T10:21:39.181Z,54.51
2023-04-11T10:22:39.183Z,55.07
2023-04-11T10:23:39.158Z,55.40
2023-04-11T10:24:39.167Z,56.44
2023-04-11T10:25:39.113Z,56.95
2023-04-11T10:26:39.108Z,57.18
2023-04-11T10:27:39.128Z,57.84
2023-04-11T10:28:39.086Z,59.16
2023-04-11T10:29:39.057Z,58.69
2023-04-11T10:30:39.048Z,60.52
2023-04-11T10:31:39.064Z,60.82
2023-04-11T10:32:39.143Z,61.33
2023-04-11T10:33:39.118Z,61.02
2023-04-11T10:34:39.029Z,61.91
2023-04-11T10:35:39.011Z,62.41
2023-04-11T10:36:39.017Z,63.10
2023-04-11T10:37:38.963Z,61.27
2023-04-11T10:38:38.941Z,60.76
2023-04-11T10:39:38.929Z,61.07
2023-04-11T10:40:38.932Z,61.37
2023-04-11T10:41:38.932Z,61.17
2023-04-11T10:42:38.918Z,61.47
2023-04-11T10:43:39.308Z,61.37
2023-04-11T10:44:38.848Z,61.68
2023-04-11T10:45:38.844Z,61.47
2023-04-11T10:46:38.903Z,60.76
2023-04-11T10:47:38.875Z,61.27
2023-04-11T10:48:38.828Z,61.75
2023-04-11T10:49:38.884Z,61.85
2023-04-11T10:50:38.787Z,61.52
2023-04-11T10:51:38.781Z,61.01
2023-04-11T10:52:38.767Z,60.40
2023-04-11T10:53:38.752Z,60.30
2023-04-11T10:54:38.730Z,59.69
2023-04-11T10:55:38.727Z,59.08
2023-04-11T10:56:38.695Z,58.58
2023-04-11T10:57:38.693Z,58.47
2023-04-11T10:58:38.668Z,58.27
2023-04-11T10:59:38.659Z,57.89
2023-04-11T11:00:38.695Z,56.77
2023-04-11T11:02:38.925Z,57.81
2023-04-11T11:03:38.785Z,58.53
2023-04-11T11:04:38.719Z,58.45
2023-04-11T11:05:39.971Z,59.27
2023-04-11T11:06:47.243Z,60.18
2023-04-11T11:07:39.561Z,59.37
2023-04-11T11:08:38.549Z,59.06
2023-04-11T11:09:38.575Z,59.37
2023-04-11T11:10:38.525Z,59.98
2023-04-11T11:11:38.492Z,60.59
2023-04-11T11:12:38.571Z,60.08
2023-04-11T11:13:38.487Z,60.86
2023-04-11T11:14:38.467Z,61.85
2023-04-11T11:15:38.497Z,60.83
2023-04-11T11:16:38.475Z,60.20
2023-04-11T11:17:38.472Z,60.98
2023-04-11T11:18:38.417Z,60.17
2023-04-11T11:19:38.414Z,59.05
2023-04-11T11:20:38.393Z,59.12
2023-04-11T11:21:38.375Z,59.53
2023-04-11T11:22:38.344Z,59.43
2023-04-11T11:23:38.357Z,59.12
2023-04-11T11:24:38.332Z,59.33
2023-04-11T11:25:38.324Z,59.20
2023-04-11T11:26:38.302Z,58.69
2023-04-11T11:27:38.308Z,58.49
2023-04-11T11:28:38.271Z,58.18
2023-04-11T11:29:38.267Z,58.29
2023-04-11T11:30:38.266Z,57.68
2023-04-11T11:31:38.381Z,57.58
2023-04-11T11:32:38.256Z,57.48
2023-04-11T11:33:38.204Z,57.78
2023-04-11T11:34:38.192Z,57.78
2023-04-11T11:35:38.195Z,57.17
2023-04-11T11:36:38.185Z,57.68
2023-04-11T11:37:38.396Z,57.78
2023-04-11T11:38:38.145Z,57.78
2023-04-11T11:39:38.136Z,57.58
2023-04-11T11:40:38.127Z,57.88
2023-04-11T11:41:38.095Z,57.68
2023-04-11T11:42:38.097Z,58.09
2023-04-11T11:43:38.090Z,58.16
2023-04-11T11:44:38.067Z,58.47
2023-04-11T11:45:38.100Z,57.96
2023-04-11T11:46:38.190Z,57.96
2023-04-11T11:47:38.067Z,57.96
2023-04-11T11:48:38.009Z,58.64
2023-04-11T11:49:37.986Z,57.62
2023-04-11T11:50:38.031Z,57.02
2023-04-11T11:51:37.998Z,57.12
2023-04-11T11:52:37.970Z,56.92
2023-04-11T11:53:37.957Z,56.92
2023-04-11T11:54:37.933Z,56.31
2023-04-11T11:55:37.936Z,56.41
2023-04-11T11:56:37.924Z,56.71
2023-04-11T11:57:37.954Z,57.02
2023-04-11T11:58:37.899Z,57.12
2023-04-11T11:59:37.866Z,56.92
2023-04-11T12:00:37.874Z,56.21
2023-04-11T12:01:37.932Z,56.21
2023-04-11T12:02:37.890Z,56.61
2023-04-11T12:03:37.910Z,56.61
2023-04-11T12:04:38.163Z,56.82
2023-04-11T12:05:37.846Z,57.12
2023-04-11T12:06:37.778Z,57.53
2023-04-11T12:07:37.761Z,57.62
2023-04-11T12:08:37.765Z,57.40
2023-04-11T12:09:37.750Z,56.01
2023-04-11T12:10:37.736Z,56.10
2023-04-11T12:11:37.708Z,53.27
2023-04-11T12:12:37.776Z,53.37
2023-04-11T12:13:37.681Z,54.49
2023-04-11T12:14:37.690Z,54.21
2023-04-11T12:15:37.734Z,55.12
2023-04-11T12:16:37.747Z,55.12
2023-04-11T12:17:38.149Z,54.61
2023-04-11T12:18:37.617Z,54.31
2023-04-11T12:19:37.628Z,53.72
2023-04-11T12:20:37.593Z,54.33
2023-04-11T12:21:37.592Z,54.03
2023-04-11T12:22:37.553Z,54.44
2023-04-11T12:23:37.603Z,54.44
2023-04-11T12:24:37.547Z,53.52
2023-04-11T12:25:37.513Z,54.24
2023-04-11T12:26:42.721Z,54.13
2023-04-11T12:27:38.516Z,54.03
2023-04-11T12:28:37.494Z,54.03
2023-04-11T12:29:37.477Z,54.13
2023-04-11T12:30:37.452Z,54.74
2023-04-11T12:31:37.437Z,55.04
2023-04-11T12:32:37.498Z,54.94
2023-04-11T12:33:37.404Z,55.15
2023-04-11T12:34:37.430Z,55.32
2023-04-11T12:35:37.381Z,54.71
2023-04-11T12:36:37.374Z,54.99
2023-04-11T12:37:37.366Z,54.28
2023-04-11T12:38:37.341Z,54.26
2023-04-11T12:39:37.334Z,54.05
2023-04-11T12:40:37.344Z,54.23
2023-04-11T12:41:37.329Z,53.63
2023-04-11T12:42:45.347Z,53.52
2023-04-11T12:43:38.284Z,53.30
2023-04-11T12:44:37.293Z,52.48
2023-04-11T12:45:37.267Z,52.89
2023-04-11T12:46:37.334Z,52.89
2023-04-11T12:47:37.255Z,52.59
2023-04-11T12:48:37.222Z,51.98
2023-04-11T12:49:37.205Z,51.98
2023-04-11T12:50:37.192Z,52.59
2023-04-11T12:51:37.189Z,52.59
2023-04-11T12:52:37.158Z,52.87
2023-04-11T12:53:37.142Z,52.76